Dodson, Oregon
Current Conditions -  °F | °C
As of 2:39 PM on Tuesday 21 Oct 2014 (Local Time) from K4S2 Reporting Station
Overcast Overcast  
Wind Chill: 61°   Ceiling: 4800
Heat Index: 61°   Visibility: 10mi
Dew Point: 50°   Wind: 3mph
Humidity: 68%   Direction: 290°WNW
Pressure: 29.97"   Gusts: NA
Location:  45.6281°N, 121.806°W
Report Text: K4S2 212139Z AUTO 29003KT 10SM BKN048 BKN055 OVC075 16/10 A2997 RMK AO2 SLP164 T01600100
Loading
Personal Weather Stations






























Interactive Weather Map
Tropical Storm Tracking
New forecast layout! Learn more

10-Day Weather Forecast

Advertisements
Track Severe Weather on mobile